Time;durP1;ratioP1;P1;durP2;ratioP2;P2;SDS_P1;SDS_P2;PMS_P1;PMS_P2;Temp;Humidity;BMP_temperature;BMP_pressure;BME280_temperature;BME280_humidity;BME280_pressure;Samples;Min_cycle;Max_cycle;Signal;HPM_P1;HPM_P2
2022/04/20 00:01:12;;;;;;;40.50;37.00;;;;;;;-0.85;63.72;97690.46;106065;1274;26600;-76
2022/04/20 00:03:40;;;;;;;41.60;37.80;;;;;;;-0.90;63.55;97689.77;106196;1274;24516;-76
2022/04/20 00:06:08;;;;;;;38.60;35.30;;;;;;;-0.98;63.45;97694.73;106470;1274;24253;-75
2022/04/20 00:08:36;;;;;;;36.60;33.20;;;;;;;-1.04;63.69;97693.75;106235;1274;22612;-75
2022/04/20 00:11:04;;;;;;;42.70;39.10;;;;;;;-1.07;63.70;97687.45;106081;1274;22544;-80
2022/04/20 00:13:31;;;;;;;42.50;38.70;;;;;;;-1.10;63.52;97684.88;106231;1273;23131;-78
2022/04/20 00:15:59;;;;;;;34.40;31.40;;;;;;;-1.13;63.79;97685.17;106084;1274;22580;-80
2022/04/20 00:18:27;;;;;;;41.50;37.80;;;;;;;-1.13;64.76;97681.58;106210;1274;22591;-77
2022/04/20 00:20:55;;;;;;;45.00;40.90;;;;;;;-1.12;64.45;97684.23;105864;1274;25420;-80
2022/04/20 00:23:23;;;;;;;37.40;34.00;;;;;;;-1.14;64.52;97685.15;106531;1274;22984;-79
2022/04/20 00:25:51;;;;;;;37.40;34.20;;;;;;;-1.16;64.23;97683.12;106052;1274;25416;-78
2022/04/20 00:28:19;;;;;;;42.60;38.90;;;;;;;-1.19;64.74;97682.81;106411;1274;25379;-79
2022/04/20 00:30:47;;;;;;;45.50;41.60;;;;;;;-1.24;64.78;97681.22;106309;1274;22605;-77
2022/04/20 00:33:14;;;;;;;41.00;37.40;;;;;;;-1.29;64.78;97682.42;107759;1272;22434;-79
2022/04/20 00:35:43;;;;;;;43.90;40.10;;;;;;;-1.29;64.99;97687.80;107497;1274;22570;-79
2022/04/20 00:38:11;;;;;;;40.20;36.40;;;;;;;-1.26;65.27;97687.35;106066;1273;22562;-79
2022/04/20 00:40:40;;;;;;;37.60;34.20;;;;;;;-1.24;65.42;97680.04;106090;1274;25410;-78
2022/04/20 00:43:08;;;;;;;39.90;36.20;;;;;;;-1.24;65.90;97675.27;105987;1274;22645;-79
2022/04/20 00:45:37;;;;;;;43.90;40.10;;;;;;;-1.25;66.12;97674.42;106179;1274;23065;-77
2022/04/20 00:48:09;;;;;;;44.20;40.40;;;;;;;-1.24;65.71;97676.49;106034;1274;22569;-78
2022/04/20 00:50:39;;;;;;;41.00;37.60;;;;;;;-1.28;65.80;97674.93;106052;1273;23229;-77
2022/04/20 00:53:07;;;;;;;38.40;35.10;;;;;;;-1.33;65.95;97679.04;106109;1273;22541;-78
2022/04/20 00:55:34;;;;;;;35.20;32.00;;;;;;;-1.37;66.45;97679.42;106212;1274;25241;-78
2022/04/20 00:58:06;;;;;;;33.00;30.00;;;;;;;-1.36;66.29;97681.44;106235;1274;22550;-78
2022/04/20 01:00:36;;;;;;;36.40;33.20;;;;;;;-1.33;66.19;97678.50;106055;1274;22631;-78
2022/04/20 01:03:06;;;;;;;33.10;30.00;;;;;;;-1.29;66.23;97678.17;105984;1274;24131;-77
2022/04/20 01:05:54;;;;;;;38.70;35.20;;;;;;;-1.27;65.92;97679.07;106248;1274;22870;-77
2022/04/20 01:08:45;;;;;;;34.60;31.30;;;;;;;-1.30;66.02;97682.44;106338;1274;22613;-79
2022/04/20 01:11:23;;;;;;;36.70;33.60;;;;;;;-1.32;66.50;97685.25;106253;1273;22560;-75
2022/04/20 01:14:06;;;;;;;43.70;39.80;;;;;;;-1.32;66.59;97682.39;105875;1274;22546;-79
2022/04/20 01:16:52;;;;;;;35.50;32.20;;;;;;;-1.31;66.60;97680.95;106307;1274;25414;-80
2022/04/20 01:19:39;;;;;;;32.30;29.40;;;;;;;-1.29;66.79;97683.33;106108;1274;22544;-77
2022/04/20 01:22:33;;;;;;;31.40;28.70;;;;;;;-1.24;66.62;97685.60;106074;1274;23613;-78
2022/04/20 01:25:27;;;;;;;33.60;30.40;;;;;;;-1.18;66.58;97678.14;106063;1272;25315;-78
2022/04/20 01:28:18;;;;;;;36.50;33.40;;;;;;;-1.13;66.89;97673.70;106174;1274;23947;-79
2022/04/20 01:30:53;;;;;;;37.80;34.30;;;;;;;-1.11;66.58;97672.63;106265;1273;22548;-79
2022/04/20 01:33:45;;;;;;;35.20;32.20;;;;;;;-1.13;66.72;97665.18;106108;1274;22549;-78
2022/04/20 01:36:13;;;;;;;36.00;32.90;;;;;;;-1.15;66.75;97664.71;106146;1274;22581;-79
2022/04/20 01:38:41;;;;;;;37.80;34.50;;;;;;;-1.17;66.89;97665.08;106254;1274;25414;-80
2022/04/20 01:41:09;;;;;;;33.10;30.20;;;;;;;-1.19;66.73;97664.33;106137;1274;22658;-79
2022/04/20 01:43:37;;;;;;;31.20;28.40;;;;;;;-1.18;66.52;97667.25;106154;1274;23170;-79
2022/04/20 01:46:25;;;;;;;32.80;29.80;;;;;;;-1.14;66.66;97667.21;106086;1274;24089;-79
2022/04/20 01:48:59;;;;;;;32.50;29.50;;;;;;;-1.16;66.64;97666.71;106133;1274;23059;-79
2022/04/20 01:51:52;;;;;;;34.80;31.70;;;;;;;-1.20;66.82;97665.04;106265;1274;22681;-79
2022/04/20 01:54:55;;;;;;;35.70;32.60;;;;;;;-1.23;67.42;97663.79;106224;1274;22612;-79
2022/04/20 01:57:28;;;;;;;38.10;34.60;;;;;;;-1.25;67.28;97669.45;106240;1274;25376;-78
2022/04/20 02:00:18;;;;;;;39.00;35.70;;;;;;;-1.31;67.08;97671.58;106128;1274;22622;-80
2022/04/20 02:03:15;;;;;;;34.70;31.60;;;;;;;-1.35;67.40;97673.17;106282;1274;25391;-79
2022/04/20 02:06:12;;;;;;;37.40;34.10;;;;;;;-1.34;67.11;97664.85;106122;1274;24244;-77
2022/04/20 02:08:48;;;;;;;38.60;35.10;;;;;;;-1.35;67.16;97662.61;106239;1274;22740;-78
2022/04/20 02:11:21;;;;;;;39.60;36.20;;;;;;;-1.42;67.44;97662.50;106004;1273;22580;-79
2022/04/20 02:13:53;;;;;;;43.10;39.20;;;;;;;-1.54;67.66;97651.10;106337;1274;22611;-79
2022/04/20 02:16:21;;;;;;;49.10;45.00;;;;;;;-1.48;68.15;97666.73;106313;1274;24284;-80
2022/04/20 02:18:49;;;;;;;54.90;49.90;;;;;;;-1.49;68.47;97660.90;105996;1274;22547;-80
2022/04/20 02:21:38;;;;;;;45.70;41.60;;;;;;;-1.48;68.02;97660.39;105802;1274;22623;-79
2022/04/20 02:24:06;;;;;;;39.50;35.60;;;;;;;-1.45;67.97;97662.11;106369;1273;25417;-79
2022/04/20 02:26:34;;;;;;;41.40;37.80;;;;;;;-1.41;67.71;97664.36;106324;1274;25433;-79
2022/04/20 02:29:02;;;;;;;40.80;37.00;;;;;;;-1.40;67.71;97660.91;106236;1274;22556;-80
2022/04/20 02:31:30;;;;;;;39.20;35.70;;;;;;;-1.40;67.66;97655.36;106310;1274;25384;-81
2022/04/20 02:33:58;;;;;;;36.60;33.50;;;;;;;-1.40;67.86;97654.51;106015;1274;25376;-79
2022/04/20 02:36:27;;;;;;;43.90;40.20;;;;;;;-1.44;67.79;97645.38;106316;1274;24421;-79
2022/04/20 02:38:55;;;;;;;48.60;44.30;;;;;;;-1.45;67.97;97645.06;106293;1274;22548;-79
2022/04/20 02:41:23;;;;;;;43.20;39.00;;;;;;;-1.50;67.83;97642.05;106283;1271;22551;-80
2022/04/20 02:43:51;;;;;;;41.60;38.10;;;;;;;-1.54;67.57;97638.52;106298;1272;22607;-79
2022/04/20 02:46:22;;;;;;;45.40;41.20;;;;;;;-1.60;67.63;97635.91;106277;1274;22657;-79
2022/04/20 02:48:51;;;;;;;41.90;38.00;;;;;;;-1.63;68.03;97633.87;106332;1274;23429;-79
2022/04/20 02:51:19;;;;;;;67.00;61.60;;;;;;;-1.63;68.07;97637.40;106343;1274;22894;-79
2022/04/20 02:53:47;;;;;;;46.70;42.70;;;;;;;-1.58;68.30;97637.36;106164;1274;25501;-80
2022/04/20 02:56:16;;;;;;;56.70;51.80;;;;;;;-1.57;68.19;97628.67;106355;1274;22692;-79
2022/04/20 02:58:46;;;;;;;48.30;43.50;;;;;;;-1.58;68.17;97631.17;106317;1274;22559;-80
2022/04/20 03:01:14;;;;;;;49.40;45.10;;;;;;;-1.61;68.17;97633.54;106175;1274;22553;-79
2022/04/20 03:03:43;;;;;;;51.80;47.20;;;;;;;-1.64;68.28;97636.17;106150;1274;22599;-79
2022/04/20 03:06:28;;;;;;;42.40;38.70;;;;;;;-1.65;68.23;97638.80;106284;1274;22557;-79
2022/04/20 03:08:58;;;;;;;40.10;36.60;;;;;;;-1.65;68.14;97642.05;106276;1272;22603;-78
2022/04/20 03:11:27;;;;;;;42.40;38.70;;;;;;;-1.65;68.31;97639.64;106005;1273;22588;-79
2022/04/20 03:13:56;;;;;;;46.60;42.30;;;;;;;-1.70;68.16;97641.34;106166;1274;25305;-80
2022/04/20 03:16:24;;;;;;;43.90;40.30;;;;;;;-1.81;68.62;97644.46;106131;1274;25357;-78
2022/04/20 03:18:52;;;;;;;48.80;44.80;;;;;;;-1.90;69.03;97641.42;105822;1274;22637;-79
2022/04/20 03:21:22;;;;;;;47.00;42.90;;;;;;;-1.97;69.14;97640.99;106103;1274;24263;-80
2022/04/20 03:23:52;;;;;;;42.90;38.70;;;;;;;-2.01;68.84;97640.70;106176;1273;22583;-78
2022/04/20 03:26:27;;;;;;;45.60;41.60;;;;;;;-2.04;68.81;97640.69;106213;1274;22561;-79
2022/04/20 03:29:12;;;;;;;46.40;42.30;;;;;;;-2.07;68.78;97639.34;106264;1273;22557;-79
2022/04/20 03:31:41;;;;;;;47.90;43.40;;;;;;;-2.10;68.89;97636.58;106093;1274;22603;-78
2022/04/20 03:34:09;;;;;;;47.80;43.50;;;;;;;-2.11;69.02;97638.60;106110;1274;22990;-79
2022/04/20 03:36:37;;;;;;;45.20;41.10;;;;;;;-2.12;69.16;97637.67;106287;1273;23931;-79
2022/04/20 03:39:05;;;;;;;48.10;43.70;;;;;;;-2.17;69.16;97634.69;106222;1274;22776;-79
2022/04/20 03:41:33;;;;;;;47.10;43.00;;;;;;;-2.17;69.16;97640.49;106236;1274;23199;-79
2022/04/20 03:44:01;;;;;;;42.50;38.70;;;;;;;-2.21;69.31;97639.54;106134;1274;25357;-78
2022/04/20 03:46:29;;;;;;;43.20;39.40;;;;;;;-2.21;69.41;97640.34;106101;1274;25357;-79
2022/04/20 03:48:59;;;;;;;52.00;47.50;;;;;;;-2.18;70.02;97640.54;106335;1273;22574;-79
2022/04/20 03:51:26;;;;;;;60.50;55.30;;;;;;;-2.11;69.94;97639.20;106240;1274;22750;-79
2022/04/20 03:53:56;;;;;;;64.10;58.00;;;;;;;-2.02;70.16;97637.58;106283;1273;22555;-79
2022/04/20 03:56:25;;;;;;;63.10;56.90;;;;;;;-1.92;70.25;97640.36;106141;1274;22554;-79
2022/04/20 03:58:53;;;;;;;62.30;56.50;;;;;;;-1.84;70.36;97634.44;106302;1274;22656;-80
2022/04/20 04:01:21;;;;;;;65.30;59.10;;;;;;;-1.79;70.05;97635.34;106204;1277;22557;-79
2022/04/20 04:03:49;;;;;;;56.10;50.80;;;;;;;-1.76;69.80;97634.29;106283;1274;22524;-78
2022/04/20 04:06:19;;;;;;;133.10;84.90;;;;;;;-1.75;69.50;97634.14;106286;1274;22650;-79
2022/04/20 04:08:47;;;;;;;72.10;62.30;;;;;;;-1.77;69.41;97632.56;106187;1274;25455;-80
2022/04/20 04:11:15;;;;;;;78.10;69.10;;;;;;;-1.81;69.45;97636.15;106280;1274;22812;-81
2022/04/20 04:13:43;;;;;;;100.30;86.20;;;;;;;-1.85;69.70;97641.84;106111;1274;24395;-80
2022/04/20 04:16:11;;;;;;;87.60;78.70;;;;;;;-1.83;70.02;97647.10;106240;1274;22560;-79
2022/04/20 04:18:39;;;;;;;78.20;71.10;;;;;;;-1.77;70.43;97645.50;106114;1274;22610;-80
2022/04/20 04:21:09;;;;;;;74.70;66.90;;;;;;;-1.69;70.50;97649.42;106136;1274;22621;-80
2022/04/20 04:23:38;;;;;;;71.20;64.70;;;;;;;-1.60;70.30;97649.77;106243;1274;22544;-78
2022/04/20 04:26:32;;;;;;;65.00;58.10;;;;;;;-1.47;70.25;97654.91;106298;1274;22542;-79
2022/04/20 04:29:01;;;;;;;64.80;58.30;;;;;;;-1.35;70.47;97657.00;106339;1274;22691;-79
2022/04/20 04:31:30;;;;;;;79.30;71.90;;;;;;;-1.24;70.41;97657.84;106068;1274;22553;-79
2022/04/20 04:33:59;;;;;;;70.70;64.50;;;;;;;-1.14;70.62;97661.81;106312;1274;25555;-79
2022/04/20 04:36:27;;;;;;;82.70;75.30;;;;;;;-1.06;70.65;97659.60;106115;1274;23968;-80
2022/04/20 04:38:57;;;;;;;65.40;59.40;;;;;;;-0.99;70.37;97661.27;106300;1272;23008;-80
2022/04/20 04:41:31;;;;;;;69.10;63.00;;;;;;;-1.01;70.04;97664.92;106244;1274;22554;-79
2022/04/20 04:44:00;;;;;;;67.90;62.00;;;;;;;-1.04;70.21;97663.55;106305;1273;25358;-78
2022/04/20 04:49:25;;;;;;;63.10;57.50;;;;;;;-0.97;70.25;97669.62;106329;1274;22556;-80
2022/04/20 04:51:55;;;;;;;68.60;62.30;;;;;;;-0.87;70.52;97670.63;106252;1274;23024;-79
2022/04/20 04:54:23;;;;;;;91.10;81.10;;;;;;;-0.76;70.73;97670.46;106289;1274;22719;-77
2022/04/20 04:56:52;;;;;;;71.90;65.40;;;;;;;-0.61;70.98;97670.77;105919;1274;23196;-78
2022/04/20 04:59:20;;;;;;;96.90;83.80;;;;;;;-0.50;71.35;97672.88;106375;1274;25898;-78
2022/04/20 05:01:50;;;;;;;120.50;93.90;;;;;;;-0.40;71.15;97671.33;106571;1274;22547;-79
2022/04/20 05:04:19;;;;;;;98.60;87.50;;;;;;;-0.31;71.80;97668.33;106549;1274;22605;-78
2022/04/20 05:06:49;;;;;;;113.80;88.70;;;;;;;-0.22;71.52;97665.52;107964;1274;22777;-78
2022/04/20 05:09:36;;;;;;;103.00;85.30;;;;;;;-0.11;71.46;97664.94;107465;1274;22568;-76
2022/04/20 05:12:07;;;;;;;111.00;89.10;;;;;;;-0.00;71.49;97656.69;107307;1274;25369;-80
2022/04/20 05:14:37;;;;;;;117.40;96.10;;;;;;;0.10;71.63;97653.70;106310;1274;22559;-77
2022/04/20 05:17:05;;;;;;;142.50;100.50;;;;;;;0.16;72.05;97652.60;106334;1274;22618;-78
2022/04/20 05:19:34;;;;;;;140.50;105.80;;;;;;;0.22;71.69;97650.00;106409;1274;22759;-79
2022/04/20 05:22:10;;;;;;;155.40;100.20;;;;;;;0.29;71.63;97654.36;106133;1274;22564;-79
2022/04/20 05:24:39;;;;;;;98.70;88.10;;;;;;;0.35;71.90;97656.84;106315;1274;22557;-78
2022/04/20 05:27:10;;;;;;;105.20;89.00;;;;;;;0.41;71.97;97659.77;106421;1273;22709;-78
2022/04/20 05:29:50;;;;;;;124.50;96.40;;;;;;;0.48;71.78;97657.75;106424;1274;22544;-79
2022/04/20 05:32:18;;;;;;;113.50;96.30;;;;;;;0.55;71.77;97661.27;106244;1274;24240;-78
2022/04/20 05:34:46;;;;;;;109.30;95.40;;;;;;;0.58;71.83;97662.77;105904;1274;23926;-79
2022/04/20 05:42:48;;;;;;;110.50;96.10;;;;;;;0.67;72.25;97665.25;106348;1274;22561;-78
2022/04/20 05:45:17;;;;;;;96.90;86.90;;;;;;;0.76;72.56;97666.55;106309;1274;22597;-78
2022/04/20 05:47:49;;;;;;;100.00;88.90;;;;;;;0.82;72.65;97660.34;106010;1274;22548;-79
2022/04/20 05:50:18;;;;;;;114.10;94.70;;;;;;;0.85;73.45;97658.49;106442;1274;22605;-78
2022/04/20 05:52:45;;;;;;;120.70;99.30;;;;;;;0.87;73.63;97658.73;105893;1274;22691;-78
2022/04/20 05:55:14;;;;;;;120.30;102.00;;;;;;;0.90;73.46;97656.73;106104;1274;25359;-78
2022/04/20 05:57:42;;;;;;;113.10;97.80;;;;;;;0.92;73.52;97654.81;105862;1274;22905;-78
2022/04/20 06:00:11;;;;;;;117.50;96.40;;;;;;;0.96;73.19;97655.09;106312;1274;22576;-78
2022/04/20 06:02:56;;;;;;;128.30;101.80;;;;;;;1.04;72.99;97654.17;106161;1274;22657;-78
2022/04/20 06:05:24;;;;;;;128.90;100.30;;;;;;;1.13;73.11;97651.83;106149;1273;24376;-79
2022/04/20 06:08:22;;;;;;;157.40;107.70;;;;;;;1.22;72.96;97649.09;105938;1274;22591;-77
2022/04/20 06:11:00;;;;;;;144.00;104.60;;;;;;;1.26;73.14;97642.23;106168;1274;22645;-78
2022/04/20 06:13:30;;;;;;;140.70;112.50;;;;;;;1.27;73.18;97640.52;105976;1273;22606;-79
2022/04/20 06:16:08;;;;;;;130.10;101.60;;;;;;;1.32;73.17;97644.08;106310;1274;22549;-78
2022/04/20 06:18:47;;;;;;;106.10;93.90;;;;;;;1.33;73.17;97644.85;106078;1273;22556;-78
2022/04/20 06:21:24;;;;;;;103.30;90.60;;;;;;;1.34;73.53;97645.42;105979;1274;22548;-78
2022/04/20 06:24:06;;;;;;;104.30;92.20;;;;;;;1.36;73.44;97642.48;106123;1274;22840;-78
2022/04/20 06:26:44;;;;;;;116.20;98.70;;;;;;;1.39;73.65;97639.45;105971;1273;22549;-77
2022/04/20 06:29:25;;;;;;;122.00;102.00;;;;;;;1.41;73.81;97640.73;106055;1274;22603;-78
2022/04/20 06:32:13;;;;;;;126.60;100.60;;;;;;;1.40;74.11;97641.16;106368;1274;22711;-78
2022/04/20 06:35:20;;;;;;;124.50;99.10;;;;;;;1.40;74.22;97645.14;105869;1275;24764;-77
2022/04/20 06:38:04;;;;;;;;;;;;;;;1.41;74.21;97641.41;106410;1273;25388;-79
2022/04/20 06:41:00;;;;;;;106.70;94.70;;;;;;;1.39;74.14;97634.83;106147;1274;22764;-77
2022/04/20 06:43:51;;;;;;;102.30;91.60;;;;;;;1.42;74.41;97635.66;106319;1273;25368;-79
2022/04/20 06:46:45;;;;;;;116.50;98.70;;;;;;;1.44;74.25;97635.61;106165;1274;24227;-80
2022/04/20 06:49:16;;;;;;;124.20;104.00;;;;;;;1.43;74.25;97629.15;106003;1274;24298;-79
2022/04/20 07:00:26;;;;;;;113.90;97.00;;;;;;;1.57;74.87;97612.33;106288;1274;22547;-78
2022/04/20 07:03:12;;;;;;;119.00;99.20;;;;;;;1.58;75.01;97614.30;105773;1274;25430;-80
2022/04/20 07:06:02;;;;;;;105.30;92.60;;;;;;;1.58;75.45;97612.11;106292;1274;22604;-83
2022/04/20 07:08:31;;;;;;;101.50;89.20;;;;;;;1.57;75.25;97615.52;106125;1274;22604;-79
2022/04/20 07:11:08;;;;;;;119.00;96.90;;;;;;;1.58;75.18;97607.08;106633;1274;25242;-79
2022/04/20 07:13:38;;;;;;;122.90;98.50;;;;;;;1.61;75.13;97604.14;106675;1274;22757;-79
2022/04/20 07:16:06;;;;;;;126.50;105.50;;;;;;;1.63;75.22;97607.29;106514;1274;22714;-79
2022/04/20 07:18:37;;;;;;;119.50;95.70;;;;;;;1.63;75.18;97604.96;106478;1274;22553;-78
2022/04/20 07:21:23;;;;;;;115.90;94.60;;;;;;;1.64;75.15;97604.31;106383;1274;25372;-78
2022/04/20 07:24:11;;;;;;;103.10;91.30;;;;;;;1.67;75.01;97599.90;106529;1274;23435;-78
2022/04/20 07:26:57;;;;;;;116.70;95.50;;;;;;;1.75;75.00;97599.08;106529;1274;24370;-78
2022/04/20 07:29:32;;;;;;;130.60;99.90;;;;;;;1.84;74.90;97598.13;106509;1274;24263;-79
2022/04/20 07:32:13;;;;;;;133.30;106.10;;;;;;;1.91;75.14;97598.63;106386;1274;23593;-79
2022/04/20 07:34:51;;;;;;;147.80;108.60;;;;;;;1.95;75.03;97594.08;106248;1274;24950;-78
2022/04/20 07:37:35;;;;;;;122.00;100.80;;;;;;;2.01;75.17;97592.14;106338;1274;22602;-79
2022/04/20 07:40:23;;;;;;;106.50;90.60;;;;;;;2.08;75.12;97595.81;106346;1274;22543;-79
2022/04/20 07:43:29;;;;;;;118.10;98.30;;;;;;;2.12;75.26;97591.98;106292;1274;25480;-77
2022/04/20 07:46:12;;;;;;;115.80;97.40;;;;;;;2.15;75.19;97592.23;105957;1274;22558;-78
2022/04/20 07:52:23;;;;;;;134.10;102.30;;;;;;;2.18;75.70;97585.13;106054;1274;22619;-77
2022/04/20 07:55:02;;;;;;;106.70;93.40;;;;;;;2.22;75.64;97583.98;106409;1274;26583;-79
2022/04/20 07:57:45;;;;;;;98.10;87.40;;;;;;;2.29;75.30;97580.91;106358;1274;22668;-80
2022/04/20 08:00:32;;;;;;;112.30;96.40;;;;;;;2.38;75.51;97582.84;106391;1274;24280;-76
2022/04/20 08:03:32;;;;;;;106.80;92.80;;;;;;;2.45;75.72;97578.43;106169;1274;22757;-78
2022/04/20 08:06:01;;;;;;;118.80;100.30;;;;;;;2.48;75.79;97574.46;106509;1274;22696;-79
2022/04/20 08:08:31;;;;;;;123.70;97.50;;;;;;;2.51;75.53;97576.52;106359;1274;22570;-78
2022/04/20 08:11:00;;;;;;;102.60;89.20;;;;;;;2.55;75.90;97574.73;106380;1274;22557;-80
2022/04/20 08:16:28;;;;;;;98.10;88.10;;;;;;;2.60;76.03;97568.71;106429;1274;25367;-79
2022/04/20 08:19:26;;;;;;;97.60;87.50;;;;;;;2.59;75.87;97569.61;105960;1274;22555;-78
2022/04/20 08:22:02;;;;;;;94.20;84.70;;;;;;;2.58;76.07;97567.15;106300;1276;24284;-79
2022/04/20 08:24:30;;;;;;;92.90;83.70;;;;;;;2.61;75.87;97567.44;106465;1274;23231;-79
2022/04/20 08:26:58;;;;;;;92.00;82.70;;;;;;;2.64;76.21;97570.48;106504;1274;22577;-78
2022/04/20 08:29:26;;;;;;;88.90;80.00;;;;;;;2.62;76.06;97571.08;106346;1274;24064;-79
2022/04/20 08:31:53;;;;;;;91.10;82.50;;;;;;;2.66;76.28;97573.06;106337;1274;25378;-78
2022/04/20 08:34:21;;;;;;;87.90;79.80;;;;;;;2.67;76.05;97571.14;106120;1274;22529;-79
2022/04/20 08:36:49;;;;;;;84.60;76.30;;;;;;;2.68;76.23;97581.38;106457;1274;22540;-79
2022/04/20 08:39:17;;;;;;;86.30;78.20;;;;;;;2.68;76.36;97576.11;106309;1274;25363;-79
2022/04/20 08:41:51;;;;;;;87.50;79.40;;;;;;;2.71;76.13;97574.33;106431;1273;22547;-79
2022/04/20 08:44:28;;;;;;;84.90;77.30;;;;;;;2.78;76.40;97567.88;106463;1274;24434;-80
2022/04/20 08:47:01;;;;;;;87.10;79.10;;;;;;;2.85;76.31;97566.75;106439;1274;22718;-80
2022/04/20 08:49:29;;;;;;;90.30;81.40;;;;;;;2.90;76.24;97563.16;106563;1274;22614;-79
2022/04/20 08:54:45;;;;;;;87.10;78.40;;;;;;;2.90;76.38;97560.02;106428;1274;22786;-79
2022/04/20 08:57:16;;;;;;;76.70;69.80;;;;;;;2.92;76.40;97553.11;106071;1274;25334;-79
2022/04/20 08:59:48;;;;;;;77.40;70.30;;;;;;;2.98;75.96;97548.41;106506;1274;24438;-80
2022/04/20 09:02:17;;;;;;;86.60;78.70;;;;;;;3.06;75.98;97544.83;106430;1277;22553;-79
2022/04/20 09:04:46;;;;;;;89.60;80.10;;;;;;;3.13;76.09;97544.45;106359;1275;22562;-79
2022/04/20 09:07:15;;;;;;;90.20;81.50;;;;;;;3.18;75.78;97543.34;106595;1274;25300;-78
2022/04/20 09:09:43;;;;;;;86.70;77.50;;;;;;;3.27;76.11;97541.42;106505;1274;22543;-78
2022/04/20 09:12:16;;;;;;;78.60;71.50;;;;;;;3.38;75.95;97543.33;106290;1274;22500;-77
2022/04/20 09:14:48;;;;;;;78.80;71.80;;;;;;;3.47;75.73;97542.08;106120;1274;24293;-77
2022/04/20 09:17:19;;;;;;;82.90;75.60;;;;;;;3.52;75.85;97541.13;106532;1273;22720;-78
2022/04/20 09:19:52;;;;;;;84.80;77.20;;;;;;;3.53;75.67;97539.01;106470;1274;22742;-78
2022/04/20 09:22:29;;;;;;;74.70;68.40;;;;;;;3.57;75.50;97534.77;106558;1274;23170;-79
2022/04/20 09:24:58;;;;;;;72.60;66.30;;;;;;;3.64;75.52;97535.84;106398;1274;22577;-78
2022/04/20 09:27:27;;;;;;;106.60;80.30;;;;;;;3.71;75.48;97540.65;106020;1274;23286;-78
2022/04/20 09:29:56;;;;;;;69.80;63.60;;;;;;;3.78;75.88;97537.58;106432;1274;23931;-78
2022/04/20 09:32:40;;;;;;;74.60;68.00;;;;;;;3.86;75.43;97531.67;106055;1274;22552;-78
2022/04/20 09:35:10;;;;;;;;;;;;;;;3.92;75.51;97534.94;106583;1273;25289;-79
2022/04/20 09:37:40;;;;;;;68.60;62.60;;;;;;;3.95;75.32;97530.25;106112;1274;22556;-79
2022/04/20 09:40:32;;;;;;;69.20;62.60;;;;;;;3.99;75.33;97531.23;106442;1274;22858;-79
2022/04/20 09:43:04;;;;;;;67.60;61.10;;;;;;;4.06;75.32;97528.66;106522;1274;25366;-79
2022/04/20 09:45:36;;;;;;;70.20;63.10;;;;;;;4.15;75.32;97526.42;106093;1274;25424;-78
2022/04/20 09:51:13;;;;;;;63.10;57.40;;;;;;;4.36;74.76;97528.27;106630;1274;22557;-80
2022/04/20 09:53:43;;;;;;;64.20;58.60;;;;;;;4.43;75.13;97525.22;106611;1274;25196;-77
2022/04/20 09:56:29;;;;;;;60.90;55.30;;;;;;;4.50;74.80;97525.95;106495;1274;22554;-80
2022/04/20 09:59:02;;;;;;;58.10;53.00;;;;;;;4.59;74.43;97520.08;106523;1274;25368;-79
2022/04/20 10:01:35;;;;;;;53.60;48.90;;;;;;;4.73;74.60;97521.28;106515;1273;25244;-80
2022/04/20 10:04:05;;;;;;;56.60;51.40;;;;;;;4.84;73.55;97521.63;106594;1274;22624;-81
2022/04/20 10:06:34;;;;;;;52.10;47.70;;;;;;;4.91;73.97;97519.80;106578;1274;23396;-79
2022/04/20 10:09:03;;;;;;;54.70;50.00;;;;;;;4.98;73.44;97517.70;106416;1274;22856;-79
2022/04/20 10:11:32;;;;;;;56.10;51.20;;;;;;;5.03;73.68;97509.61;106325;1275;22675;-79
2022/04/20 10:16:50;;;;;;;53.90;49.00;;;;;;;5.17;73.16;97508.89;106373;1274;205249;-76
2022/04/20 10:19:27;;;;;;;53.80;49.40;;;;;;;5.28;72.66;97500.72;106600;1274;25678;-77
2022/04/20 10:21:57;;;;;;;53.40;48.30;;;;;;;5.38;72.07;97506.75;106619;1274;24373;-77
2022/04/20 10:24:30;;;;;;;68.00;62.00;;;;;;;5.45;71.95;97497.96;106492;1274;22568;-78
2022/04/20 10:27:08;;;;;;;50.80;46.40;;;;;;;5.51;71.77;97499.64;106462;1274;23656;-77
2022/04/20 10:29:59;;;;;;;45.60;41.90;;;;;;;5.56;71.50;97495.66;106635;1274;24378;-77
2022/04/20 10:32:38;;;;;;;51.00;46.70;;;;;;;5.60;70.61;97498.04;105918;1275;25270;-77
2022/04/20 10:35:09;;;;;;;50.20;46.00;;;;;;;5.66;71.13;97494.00;106538;1274;25360;-77
2022/04/20 10:38:08;;;;;;;50.60;46.60;;;;;;;5.72;70.57;97499.15;106485;1273;22566;-77
2022/04/20 10:41:07;;;;;;;49.80;45.40;;;;;;;5.75;69.71;97498.38;106444;1274;22554;-77
2022/04/20 10:43:39;;;;;;;42.00;38.60;;;;;;;5.77;68.82;97498.91;106488;1273;22482;-77
2022/04/20 10:46:21;;;;;;;44.50;40.60;;;;;;;5.79;69.19;97493.81;106467;1273;22545;-78
2022/04/20 10:49:01;;;;;;;46.10;41.90;;;;;;;5.86;69.82;97494.20;106435;1274;25328;-77
2022/04/20 10:51:37;;;;;;;48.00;43.70;;;;;;;5.91;69.70;97490.10;106568;1274;23328;-77
2022/04/20 10:54:17;;;;;;;42.30;38.90;;;;;;;5.93;69.05;97492.13;106534;1274;22566;-78
2022/04/20 10:56:48;;;;;;;46.80;42.60;;;;;;;5.88;68.13;97495.52;106562;1274;22563;-77
2022/04/20 10:59:17;;;;;;;43.70;39.50;;;;;;;5.87;68.55;97489.38;106488;1274;22725;-76
2022/04/20 11:01:58;;;;;;;40.50;36.80;;;;;;;5.89;67.64;97496.27;106129;1274;24224;-78
2022/04/20 11:04:39;;;;;;;38.20;34.90;;;;;;;5.92;67.60;97493.37;106334;1275;25245;-77
2022/04/20 11:07:07;;;;;;;39.70;36.10;;;;;;;5.95;67.54;97492.29;106221;1277;25404;-76
2022/04/20 11:09:52;;;;;;;39.60;36.30;;;;;;;6.00;67.87;97496.33;106488;1274;22691;-77
2022/04/20 11:21:33;;;;;;;39.30;35.90;;;;;;;6.21;66.95;97483.70;106376;1274;22636;-77
2022/04/20 11:24:11;;;;;;;37.50;33.90;;;;;;;6.23;65.79;97476.24;106434;1274;22574;-77
2022/04/20 11:26:51;;;;;;;36.30;33.10;;;;;;;6.20;65.84;97480.30;106301;1275;22555;-77
2022/04/20 11:29:24;;;;;;;37.80;34.00;;;;;;;6.13;64.63;97479.05;106387;1274;22714;-77
2022/04/20 11:32:04;;;;;;;37.40;34.10;;;;;;;6.12;66.00;97478.05;106463;1274;24459;-77
2022/04/20 11:35:14;;;;;;;34.50;31.30;;;;;;;6.12;65.17;97474.20;106292;1274;22676;-77
2022/04/20 11:37:56;;;;;;;33.80;30.60;;;;;;;6.12;65.37;97481.95;106431;1274;24223;-77
2022/04/20 11:40:25;;;;;;;33.50;30.60;;;;;;;6.09;64.81;97473.25;106482;1274;22540;-77
2022/04/20 11:43:07;;;;;;;35.30;32.40;;;;;;;6.09;65.52;97476.85;106083;1275;22701;-77
2022/04/20 11:45:54;;;;;;;36.00;32.70;;;;;;;6.11;65.16;97476.17;106402;1274;22536;-78
2022/04/20 11:48:22;;;;;;;34.30;31.10;;;;;;;6.14;65.54;97472.09;106563;1274;22573;-77
2022/04/20 11:50:58;;;;;;;37.70;34.20;;;;;;;6.18;64.89;97472.11;106406;1274;22700;-76
2022/04/20 11:53:41;;;;;;;35.20;31.80;;;;;;;6.20;64.21;97470.86;106762;1274;22556;-77
2022/04/20 11:56:36;;;;;;;35.30;32.10;;;;;;;6.19;63.92;97471.46;106435;1274;22713;-76
2022/04/20 11:59:07;;;;;;;37.90;34.40;;;;;;;6.18;63.58;97471.83;106438;1274;24223;-76
2022/04/20 12:01:39;;;;;;;30.30;27.70;;;;;;;6.18;64.05;97470.66;106398;1274;22545;-77
2022/04/20 12:04:15;;;;;;;31.80;28.70;;;;;;;6.20;64.15;97463.96;106532;1274;22550;-76
2022/04/20 12:06:53;;;;;;;32.00;28.90;;;;;;;6.22;63.45;97462.17;106073;1274;25363;-76
2022/04/20 12:09:29;;;;;;;34.40;31.00;;;;;;;6.26;63.80;97463.44;105879;1275;22777;-77
2022/04/20 12:12:02;;;;;;;30.20;27.30;;;;;;;6.28;63.64;97465.77;106497;1274;22639;-77
2022/04/20 12:14:37;;;;;;;27.60;24.70;;;;;;;6.27;62.07;97465.63;106495;1274;22734;-77
2022/04/20 12:17:09;;;;;;;30.70;27.80;;;;;;;6.23;61.98;97462.54;106583;1274;22654;-77
2022/04/20 12:19:42;;;;;;;29.70;26.70;;;;;;;6.21;62.99;97458.88;105959;1274;22620;-77
2022/04/20 12:22:17;;;;;;;31.80;28.70;;;;;;;6.21;62.48;97455.40;106089;1274;25415;-77
2022/04/20 12:24:47;;;;;;;29.70;27.20;;;;;;;6.21;63.05;97450.58;106346;1274;22581;-78
2022/04/20 12:27:21;;;;;;;31.70;28.80;;;;;;;6.23;62.74;97452.27;106073;1274;24343;-79